sensor_id;sensor_type;location;lat;lon;timestamp;pressure;altitude;pressure_sealevel;temperature;humidity
56992;BME280;42885;49.754;18.636;2023-03-01T00:01:39;99468.21;;;0.50;100.00
56992;BME280;42885;49.754;18.636;2023-03-01T00:04:27;99470.34;;;0.10;100.00
56992;BME280;42885;49.754;18.636;2023-03-01T00:07:17;99469.42;;;-0.15;100.00
56992;BME280;42885;49.754;18.636;2023-03-01T00:10:06;99467.34;;;0.22;100.00
56992;BME280;42885;49.754;18.636;2023-03-01T00:12:55;99481.45;;;-0.05;100.00
56992;BME280;42885;49.754;18.636;2023-03-01T00:15:44;99478.45;;;0.04;100.00
56992;BME280;42885;49.754;18.636;2023-03-01T00:18:34;99480.66;;;0.21;100.00
56992;BME280;42885;49.754;18.636;2023-03-01T00:21:24;99473.36;;;0.35;100.00
56992;BME280;42885;49.754;18.636;2023-03-01T00:24:13;99478.06;;;0.18;100.00
56992;BME280;42885;49.754;18.636;2023-03-01T00:27:03;99475.92;;;0.16;100.00
56992;BME280;42885;49.754;18.636;2023-03-01T00:29:52;99480.64;;;0.20;100.00
56992;BME280;42885;49.754;18.636;2023-03-01T00:32:42;99470.36;;;0.26;100.00
56992;BME280;42885;49.754;18.636;2023-03-01T00:35:33;99469.52;;;0.38;100.00
56992;BME280;42885;49.754;18.636;2023-03-01T00:38:22;99468.20;;;0.35;100.00
56992;BME280;42885;49.754;18.636;2023-03-01T00:41:14;99469.47;;;0.19;100.00
56992;BME280;42885;49.754;18.636;2023-03-01T00:44:03;99467.32;;;0.11;100.00
56992;BME280;42885;49.754;18.636;2023-03-01T00:46:52;99463.06;;;0.22;100.00
56992;BME280;42885;49.754;18.636;2023-03-01T00:49:41;99464.31;;;0.05;100.00
56992;BME280;42885;49.754;18.636;2023-03-01T00:52:30;99457.00;;;-0.08;100.00
56992;BME280;42885;49.754;18.636;2023-03-01T00:55:20;99461.73;;;0.04;100.00
56992;BME280;42885;49.754;18.636;2023-03-01T00:58:09;99456.56;;;-0.10;100.00
56992;BME280;42885;49.754;18.636;2023-03-01T01:00:59;99451.40;;;-0.23;100.00
56992;BME280;42885;49.754;18.636;2023-03-01T01:03:51;99455.70;;;-0.09;100.00
56992;BME280;42885;49.754;18.636;2023-03-01T01:06:42;99457.38;;;-0.27;100.00
56992;BME280;42885;49.754;18.636;2023-03-01T01:09:32;99461.27;;;-0.13;100.00
56992;BME280;42885;49.754;18.636;2023-03-01T01:12:22;99461.27;;;-0.19;100.00
56992;BME280;42885;49.754;18.636;2023-03-01T01:15:12;99463.88;;;-0.01;100.00
56992;BME280;42885;49.754;18.636;2023-03-01T01:18:02;99465.05;;;-0.44;100.00
56992;BME280;42885;49.754;18.636;2023-03-01T01:20:52;99462.11;;;-0.26;100.00
56992;BME280;42885;49.754;18.636;2023-03-01T01:23:42;99461.27;;;-0.13;100.00
56992;BME280;42885;49.754;18.636;2023-03-01T01:26:32;99457.33;;;-0.49;100.00
56992;BME280;42885;49.754;18.636;2023-03-01T01:29:22;99448.75;;;-0.48;100.00
56992;BME280;42885;49.754;18.636;2023-03-01T01:32:12;99448.26;;;-0.64;100.00
56992;BME280;42885;49.754;18.636;2023-03-01T01:35:01;99447.39;;;-0.68;100.00
56992;BME280;42885;49.754;18.636;2023-03-01T01:37:50;99444.50;;;-0.39;100.00
56992;BME280;42885;49.754;18.636;2023-03-01T01:40:44;99445.41;;;-0.12;100.00
56992;BME280;42885;49.754;18.636;2023-03-01T01:43:35;99450.13;;;-0.18;100.00
56992;BME280;42885;49.754;18.636;2023-03-01T01:46:36;99449.28;;;-0.16;100.00
56992;BME280;42885;49.754;18.636;2023-03-01T01:49:37;99447.50;;;-0.31;100.00
56992;BME280;42885;49.754;18.636;2023-03-01T01:52:32;99446.70;;;-0.20;100.00
56992;BME280;42885;49.754;18.636;2023-03-01T01:55:22;99444.78;;;-0.77;100.00
56992;BME280;42885;49.754;18.636;2023-03-01T01:58:14;99444.98;;;-0.09;100.00
56992;BME280;42885;49.754;18.636;2023-03-01T02:01:04;99444.02;;;-0.51;100.00
56992;BME280;42885;49.754;18.636;2023-03-01T02:03:53;99436.80;;;-0.30;100.00
56992;BME280;42885;49.754;18.636;2023-03-01T02:07:10;99432.97;;;-0.16;100.00
56992;BME280;42885;49.754;18.636;2023-03-01T02:09:34;99433.83;;;-0.20;100.00
56992;BME280;42885;49.754;18.636;2023-03-01T02:12:25;99436.39;;;-0.25;100.00
56992;BME280;42885;49.754;18.636;2023-03-01T02:15:14;99433.36;;;-0.37;100.00
56992;BME280;42885;49.754;18.636;2023-03-01T02:18:05;99427.30;;;-0.56;100.00
56992;BME280;42885;49.754;18.636;2023-03-01T02:23:54;99424.64;;;-0.76;100.00
56992;BME280;42885;49.754;18.636;2023-03-01T02:26:51;99421.70;;;-0.56;100.00
56992;BME280;42885;49.754;18.636;2023-03-01T02:29:41;99426.41;;;-0.61;100.00
56992;BME280;42885;49.754;18.636;2023-03-01T02:32:32;99422.77;;;-1.08;100.00
56992;BME280;42885;49.754;18.636;2023-03-01T02:35:21;99417.09;;;-1.27;100.00
56992;BME280;42885;49.754;18.636;2023-03-01T02:38:11;99415.98;;;-0.92;100.00
56992;BME280;42885;49.754;18.636;2023-03-01T02:41:00;99411.72;;;-0.95;100.00
56992;BME280;42885;49.754;18.636;2023-03-01T02:43:51;99407.04;;;-0.85;100.00
56992;BME280;42885;49.754;18.636;2023-03-01T02:46:46;99410.53;;;-0.70;100.00
56992;BME280;42885;49.754;18.636;2023-03-01T02:49:36;99405.39;;;-0.67;100.00
56992;BME280;42885;49.754;18.636;2023-03-01T02:52:46;99399.33;;;-0.85;100.00
56992;BME280;42885;49.754;18.636;2023-03-01T02:55:30;99389.08;;;-0.78;100.00
56992;BME280;42885;49.754;18.636;2023-03-01T02:58:19;99390.38;;;-0.67;100.00
56992;BME280;42885;49.754;18.636;2023-03-01T03:01:09;99390.80;;;-0.71;100.00
56992;BME280;42885;49.754;18.636;2023-03-01T03:04:00;99394.16;;;-0.91;100.00
56992;BME280;42885;49.754;18.636;2023-03-01T03:06:50;99394.55;;;-0.96;100.00
56992;BME280;42885;49.754;18.636;2023-03-01T03:09:40;99391.09;;;-1.04;100.00
56992;BME280;42885;49.754;18.636;2023-03-01T03:12:29;99385.66;;;-0.77;100.00
56992;BME280;42885;49.754;18.636;2023-03-01T03:15:18;99391.13;;;-0.98;100.00
56992;BME280;42885;49.754;18.636;2023-03-01T03:18:11;99396.69;;;-1.03;100.00
56992;BME280;42885;49.754;18.636;2023-03-01T03:21:00;99391.16;;;-0.89;100.00
56992;BME280;42885;49.754;18.636;2023-03-01T03:23:50;99388.47;;;-1.20;100.00
56992;BME280;42885;49.754;18.636;2023-03-01T03:26:39;99387.59;;;-1.17;100.00
56992;BME280;42885;49.754;18.636;2023-03-01T03:29:29;99382.02;;;-1.25;100.00
56992;BME280;42885;49.754;18.636;2023-03-01T03:32:17;99370.90;;;-1.17;100.00
56992;BME280;42885;49.754;18.636;2023-03-01T03:35:08;99365.62;;;-1.42;100.00
56992;BME280;42885;49.754;18.636;2023-03-01T03:38:01;99369.92;;;-1.43;100.00
56992;BME280;42885;49.754;18.636;2023-03-01T03:41:02;99371.69;;;-1.29;100.00
56992;BME280;42885;49.754;18.636;2023-03-01T03:43:52;99373.93;;;-1.16;100.00
56992;BME280;42885;49.754;18.636;2023-03-01T03:46:42;99372.64;;;-1.16;100.00
56992;BME280;42885;49.754;18.636;2023-03-01T03:49:32;99378.21;;;-1.15;100.00
56992;BME280;42885;49.754;18.636;2023-03-01T03:52:22;99382.84;;;-1.26;100.00
56992;BME280;42885;49.754;18.636;2023-03-01T03:55:12;99395.70;;;-1.27;100.00
56992;BME280;42885;49.754;18.636;2023-03-01T03:58:03;99398.72;;;-1.21;100.00
56992;BME280;42885;49.754;18.636;2023-03-01T04:00:55;99406.06;;;-1.12;100.00
56992;BME280;42885;49.754;18.636;2023-03-01T04:03:45;99399.53;;;-1.32;100.00
56992;BME280;42885;49.754;18.636;2023-03-01T04:06:38;99402.33;;;-1.60;100.00
56992;BME280;42885;49.754;18.636;2023-03-01T04:09:27;99402.57;;;-1.25;100.00
56992;BME280;42885;49.754;18.636;2023-03-01T04:12:17;99400.41;;;-1.25;100.00
56992;BME280;42885;49.754;18.636;2023-03-01T04:15:08;99388.04;;;-1.18;100.00
56992;BME280;42885;49.754;18.636;2023-03-01T04:18:03;99391.80;;;-1.36;100.00
56992;BME280;42885;49.754;18.636;2023-03-01T04:20:53;99394.47;;;-1.15;100.00
56992;BME280;42885;49.754;18.636;2023-03-01T04:23:43;99393.31;;;-0.91;100.00
56992;BME280;42885;49.754;18.636;2023-03-01T04:26:31;99395.02;;;-0.89;100.00
56992;BME280;42885;49.754;18.636;2023-03-01T04:29:20;99402.33;;;-0.80;100.00
56992;BME280;42885;49.754;18.636;2023-03-01T04:32:09;99392.67;;;-1.33;100.00
56992;BME280;42885;49.754;18.636;2023-03-01T04:34:57;99393.76;;;-1.61;100.00
56992;BME280;42885;49.754;18.636;2023-03-01T04:37:47;99388.72;;;-1.48;100.00
56992;BME280;42885;49.754;18.636;2023-03-01T04:40:36;99382.84;;;-1.29;100.00
56992;BME280;42885;49.754;18.636;2023-03-01T04:43:24;99388.06;;;-1.16;100.00
56992;BME280;42885;49.754;18.636;2023-03-01T04:46:15;99386.59;;;-1.44;100.00
56992;BME280;42885;49.754;18.636;2023-03-01T04:49:05;99395.91;;;-1.60;100.00
56992;BME280;42885;49.754;18.636;2023-03-01T04:51:53;99397.73;;;-1.44;100.00
56992;BME280;42885;49.754;18.636;2023-03-01T04:54:43;99408.50;;;-1.30;100.00
56992;BME280;42885;49.754;18.636;2023-03-01T04:57:32;99408.08;;;-1.31;100.00
56992;BME280;42885;49.754;18.636;2023-03-01T05:00:22;99408.84;;;-1.46;100.00
56992;BME280;42885;49.754;18.636;2023-03-01T05:03:12;99412.69;;;-1.46;100.00
56992;BME280;42885;49.754;18.636;2023-03-01T05:06:03;99416.43;;;-1.62;100.00
56992;BME280;42885;49.754;18.636;2023-03-01T05:08:52;99407.37;;;-1.74;100.00
56992;BME280;42885;49.754;18.636;2023-03-01T05:11:41;99404.05;;;-1.59;100.00
56992;BME280;42885;49.754;18.636;2023-03-01T05:14:31;99395.37;;;-1.77;100.00
56992;BME280;42885;49.754;18.636;2023-03-01T05:17:20;99395.55;;;-2.04;100.00
56992;BME280;42885;49.754;18.636;2023-03-01T05:20:09;99394.16;;;-2.19;100.00
56992;BME280;42885;49.754;18.636;2023-03-01T05:23:00;99392.23;;;-1.92;100.00
56992;BME280;42885;49.754;18.636;2023-03-01T05:25:50;99390.27;;;-1.72;100.00
56992;BME280;42885;49.754;18.636;2023-03-01T05:28:40;99388.61;;;-1.64;100.00
56992;BME280;42885;49.754;18.636;2023-03-01T05:31:29;99389.92;;;-1.59;100.00
56992;BME280;42885;49.754;18.636;2023-03-01T05:34:22;99393.46;;;-1.42;100.00
56992;BME280;42885;49.754;18.636;2023-03-01T05:37:10;99389.28;;;-1.21;100.00
56992;BME280;42885;49.754;18.636;2023-03-01T05:39:59;99391.82;;;-1.32;100.00
56992;BME280;42885;49.754;18.636;2023-03-01T05:42:53;99396.47;;;-1.37;100.00
56992;BME280;42885;49.754;18.636;2023-03-01T05:45:43;99396.44;;;-1.42;100.00
56992;BME280;42885;49.754;18.636;2023-03-01T05:48:32;99396.08;;;-1.35;100.00
56992;BME280;42885;49.754;18.636;2023-03-01T05:51:22;99395.70;;;-1.21;100.00
56992;BME280;42885;49.754;18.636;2023-03-01T05:54:11;99393.20;;;-1.10;100.00
56992;BME280;42885;49.754;18.636;2023-03-01T05:57:01;99394.53;;;-1.04;100.00
56992;BME280;42885;49.754;18.636;2023-03-01T05:59:50;99392.38;;;-1.04;100.00
56992;BME280;42885;49.754;18.636;2023-03-01T06:02:39;99393.73;;;-0.95;100.00
56992;BME280;42885;49.754;18.636;2023-03-01T06:05:31;99399.28;;;-1.68;100.00
56992;BME280;42885;49.754;18.636;2023-03-01T06:08:21;99401.00;;;-1.63;100.00
56992;BME280;42885;49.754;18.636;2023-03-01T06:11:10;99394.22;;;-1.55;100.00
56992;BME280;42885;49.754;18.636;2023-03-01T06:13:59;99400.64;;;-1.55;100.00
56992;BME280;42885;49.754;18.636;2023-03-01T06:16:49;99398.57;;;-1.46;100.00
56992;BME280;42885;49.754;18.636;2023-03-01T06:19:38;99400.97;;;-0.99;100.00
56992;BME280;42885;49.754;18.636;2023-03-01T06:22:27;99397.16;;;-0.90;100.00
56992;BME280;42885;49.754;18.636;2023-03-01T06:25:18;99389.11;;;-0.69;100.00
56992;BME280;42885;49.754;18.636;2023-03-01T06:28:08;99388.73;;;-0.51;100.00
56992;BME280;42885;49.754;18.636;2023-03-01T06:30:57;99393.42;;;-0.56;100.00
56992;BME280;42885;49.754;18.636;2023-03-01T06:33:47;99393.89;;;-0.42;100.00
56992;BME280;42885;49.754;18.636;2023-03-01T06:36:36;99394.34;;;-0.32;100.00
56992;BME280;42885;49.754;18.636;2023-03-01T06:39:27;99397.77;;;-0.40;100.00
56992;BME280;42885;49.754;18.636;2023-03-01T06:42:17;99395.99;;;-0.56;100.00
56992;BME280;42885;49.754;18.636;2023-03-01T06:45:08;99394.80;;;-0.18;100.00
56992;BME280;42885;49.754;18.636;2023-03-01T06:48:02;99400.39;;;0.11;100.00
56992;BME280;42885;49.754;18.636;2023-03-01T06:50:52;99399.95;;;0.04;100.00
56992;BME280;42885;49.754;18.636;2023-03-01T06:53:41;99394.82;;;-0.03;100.00
56992;BME280;42885;49.754;18.636;2023-03-01T06:56:31;99401.23;;;0.50;100.00
56992;BME280;42885;49.754;18.636;2023-03-01T06:59:20;99389.64;;;0.55;100.00
56992;BME280;42885;49.754;18.636;2023-03-01T07:02:11;99392.23;;;0.41;100.00
56992;BME280;42885;49.754;18.636;2023-03-01T07:05:00;99390.89;;;0.69;100.00
56992;BME280;42885;49.754;18.636;2023-03-01T07:07:49;99397.73;;;0.89;100.00
56992;BME280;42885;49.754;18.636;2023-03-01T07:10:37;99390.66;;;1.41;100.00
56992;BME280;42885;49.754;18.636;2023-03-01T07:13:27;99387.66;;;1.38;100.00
56992;BME280;42885;49.754;18.636;2023-03-01T07:16:16;99385.89;;;1.45;100.00
56992;BME280;42885;49.754;18.636;2023-03-01T07:19:05;99383.65;;;1.66;100.00
56992;BME280;42885;49.754;18.636;2023-03-01T07:21:54;99376.05;;;1.38;100.00
56992;BME280;42885;49.754;18.636;2023-03-01T07:24:44;99374.59;;;1.69;100.00
56992;BME280;42885;49.754;18.636;2023-03-01T07:27:33;99365.94;;;1.76;100.00
56992;BME280;42885;49.754;18.636;2023-03-01T07:30:23;99376.13;;;1.93;100.00
56992;BME280;42885;49.754;18.636;2023-03-01T07:33:13;99387.18;;;2.11;98.00
56992;BME280;42885;49.754;18.636;2023-03-01T07:36:04;99376.50;;;2.02;95.66
56992;BME280;42885;49.754;18.636;2023-03-01T07:38:53;99381.47;;;2.26;93.67
56992;BME280;42885;49.754;18.636;2023-03-01T07:41:44;99377.36;;;2.54;91.35
56992;BME280;42885;49.754;18.636;2023-03-01T07:44:33;99377.68;;;2.66;91.59
56992;BME280;42885;49.754;18.636;2023-03-01T07:47:23;99376.96;;;2.91;88.95
56992;BME280;42885;49.754;18.636;2023-03-01T07:50:13;99374.95;;;2.78;87.08
56992;BME280;42885;49.754;18.636;2023-03-01T07:53:03;99379.30;;;2.74;87.42
56992;BME280;42885;49.754;18.636;2023-03-01T07:56:10;99372.03;;;3.08;90.87
56992;BME280;42885;49.754;18.636;2023-03-01T07:58:59;99370.67;;;3.14;89.04
56992;BME280;42885;49.754;18.636;2023-03-01T08:01:49;99366.91;;;3.03;88.64
56992;BME280;42885;49.754;18.636;2023-03-01T08:04:38;99358.27;;;3.04;88.68
56992;BME280;42885;49.754;18.636;2023-03-01T08:07:27;99352.53;;;3.48;84.92
56992;BME280;42885;49.754;18.636;2023-03-01T08:10:16;99353.81;;;3.49;83.07
56992;BME280;42885;49.754;18.636;2023-03-01T08:13:06;99347.54;;;3.66;80.76
56992;BME280;42885;49.754;18.636;2023-03-01T08:16:03;99349.47;;;3.51;80.58
56992;BME280;42885;49.754;18.636;2023-03-01T08:18:52;99350.14;;;3.64;80.66
56992;BME280;42885;49.754;18.636;2023-03-01T08:21:42;99339.11;;;3.51;79.97
56992;BME280;42885;49.754;18.636;2023-03-01T08:24:31;99338.59;;;3.85;79.25
56992;BME280;42885;49.754;18.636;2023-03-01T08:27:21;99331.88;;;4.01;78.76
56992;BME280;42885;49.754;18.636;2023-03-01T08:30:11;99325.16;;;3.89;80.83
56992;BME280;42885;49.754;18.636;2023-03-01T08:33:00;99318.41;;;4.08;79.76
56992;BME280;42885;49.754;18.636;2023-03-01T08:35:49;99309.13;;;4.45;76.50
56992;BME280;42885;49.754;18.636;2023-03-01T08:38:38;99308.36;;;4.62;75.83
56992;BME280;42885;49.754;18.636;2023-03-01T08:41:28;99310.09;;;4.13;76.04
56992;BME280;42885;49.754;18.636;2023-03-01T08:44:17;99310.48;;;4.16;77.90
56992;BME280;42885;49.754;18.636;2023-03-01T08:47:08;99301.56;;;4.32;78.17
56992;BME280;42885;49.754;18.636;2023-03-01T08:49:58;99304.52;;;4.10;78.54
56992;BME280;42885;49.754;18.636;2023-03-01T08:52:47;99297.56;;;4.38;77.36
56992;BME280;42885;49.754;18.636;2023-03-01T08:55:36;99303.39;;;4.50;77.78
56992;BME280;42885;49.754;18.636;2023-03-01T08:58:25;99300.28;;;4.78;77.54
56992;BME280;42885;49.754;18.636;2023-03-01T09:01:17;99306.77;;;4.99;75.15
56992;BME280;42885;49.754;18.636;2023-03-01T09:04:07;99306.75;;;5.20;74.04
56992;BME280;42885;49.754;18.636;2023-03-01T09:06:56;99305.31;;;5.46;71.42
56992;BME280;42885;49.754;18.636;2023-03-01T09:09:46;99304.91;;;5.63;70.50
56992;BME280;42885;49.754;18.636;2023-03-01T09:12:35;99298.80;;;5.48;69.68
56992;BME280;42885;49.754;18.636;2023-03-01T09:15:25;99300.98;;;5.65;69.27
56992;BME280;42885;49.754;18.636;2023-03-01T09:18:14;99297.35;;;5.72;69.05
56992;BME280;42885;49.754;18.636;2023-03-01T09:21:06;99288.13;;;6.13;67.36
56992;BME280;42885;49.754;18.636;2023-03-01T09:23:57;99286.96;;;6.25;65.74
56992;BME280;42885;49.754;18.636;2023-03-01T09:26:46;99293.77;;;6.14;64.73
56992;BME280;42885;49.754;18.636;2023-03-01T09:29:37;99290.30;;;6.30;63.90
56992;BME280;42885;49.754;18.636;2023-03-01T09:32:26;99291.63;;;6.45;61.88
56992;BME280;42885;49.754;18.636;2023-03-01T09:35:16;99301.59;;;6.46;61.97
56992;BME280;42885;49.754;18.636;2023-03-01T09:38:06;99296.95;;;6.08;64.29
56992;BME280;42885;49.754;18.636;2023-03-01T09:40:55;99295.94;;;6.30;63.57
56992;BME280;42885;49.754;18.636;2023-03-01T09:43:59;99294.29;;;6.11;64.01
56992;BME280;42885;49.754;18.636;2023-03-01T09:46:44;99289.39;;;6.80;63.10
56992;BME280;42885;49.754;18.636;2023-03-01T09:49:36;99286.38;;;6.64;62.34
56992;BME280;42885;49.754;18.636;2023-03-01T09:55:39;99281.80;;;6.57;65.57
56992;BME280;42885;49.754;18.636;2023-03-01T10:05:37;99277.45;;;7.46;59.91
56992;BME280;42885;49.754;18.636;2023-03-01T10:11:32;99281.20;;;7.37;59.32
56992;BME280;42885;49.754;18.636;2023-03-01T10:14:33;99274.42;;;7.60;59.29
56992;BME280;42885;49.754;18.636;2023-03-01T10:17:44;99275.06;;;7.25;60.46
56992;BME280;42885;49.754;18.636;2023-03-01T10:20:55;99272.30;;;7.44;59.63
56992;BME280;42885;49.754;18.636;2023-03-01T10:23:38;99268.41;;;7.71;58.40
56992;BME280;42885;49.754;18.636;2023-03-01T10:26:44;99266.66;;;7.72;58.22
56992;BME280;42885;49.754;18.636;2023-03-01T10:29:41;99259.33;;;7.83;57.72
56992;BME280;42885;49.754;18.636;2023-03-01T10:32:25;99256.72;;;8.22;57.50
56992;BME280;42885;49.754;18.636;2023-03-01T10:35:23;99257.75;;;8.42;58.03
56992;BME280;42885;49.754;18.636;2023-03-01T10:38:14;99254.20;;;8.70;57.32
56992;BME280;42885;49.754;18.636;2023-03-01T10:41:07;99248.89;;;8.84;53.83
56992;BME280;42885;49.754;18.636;2023-03-01T10:43:58;99248.89;;;8.84;53.83
56992;BME280;42885;49.754;18.636;2023-03-01T10:46:49;99240.92;;;8.76;53.77
56992;BME280;42885;49.754;18.636;2023-03-01T10:49:39;99245.28;;;8.88;52.32
56992;BME280;42885;49.754;18.636;2023-03-01T10:52:32;99243.80;;;8.80;51.38
56992;BME280;42885;49.754;18.636;2023-03-01T10:55:33;99232.55;;;9.02;51.10
56992;BME280;42885;49.754;18.636;2023-03-01T10:58:22;99232.48;;;8.92;49.62
56992;BME280;42885;49.754;18.636;2023-03-01T11:01:29;99227.78;;;9.24;49.80
56992;BME280;42885;49.754;18.636;2023-03-01T11:04:20;99223.16;;;9.63;48.63
56992;BME280;42885;49.754;18.636;2023-03-01T11:07:09;99224.42;;;9.75;48.50
56992;BME280;42885;49.754;18.636;2023-03-01T11:09:59;99213.44;;;11.62;44.84
56992;BME280;42885;49.754;18.636;2023-03-01T11:12:49;99204.78;;;13.43;40.64
56992;BME280;42885;49.754;18.636;2023-03-01T11:15:38;99200.20;;;13.70;38.18
56992;BME280;42885;49.754;18.636;2023-03-01T11:18:30;99197.86;;;13.73;37.96
56992;BME280;42885;49.754;18.636;2023-03-01T11:21:19;99197.86;;;13.73;37.96
56992;BME280;42885;49.754;18.636;2023-03-01T11:24:11;99195.47;;;14.71;35.88
56992;BME280;42885;49.754;18.636;2023-03-01T11:27:04;99186.37;;;14.41;35.69
56992;BME280;42885;49.754;18.636;2023-03-01T11:30:07;99180.81;;;14.24;35.57
56992;BME280;42885;49.754;18.636;2023-03-01T11:35:58;99182.97;;;14.53;34.77
56992;BME280;42885;49.754;18.636;2023-03-01T11:38:48;99176.02;;;14.38;35.61
56992;BME280;42885;49.754;18.636;2023-03-01T11:41:40;99166.05;;;14.43;35.09
56992;BME280;42885;49.754;18.636;2023-03-01T11:44:31;99164.07;;;15.03;35.32
56992;BME280;42885;49.754;18.636;2023-03-01T11:47:36;99164.05;;;15.10;33.71
56992;BME280;42885;49.754;18.636;2023-03-01T11:50:44;99147.98;;;15.94;34.04
56992;BME280;42885;49.754;18.636;2023-03-01T11:56:55;99155.10;;;15.13;34.15
56992;BME280;42885;49.754;18.636;2023-03-01T11:59:59;99142.92;;;17.35;33.00
56992;BME280;42885;49.754;18.636;2023-03-01T12:18:33;99126.03;;;17.72;31.36
56992;BME280;42885;49.754;18.636;2023-03-01T12:21:40;99120.84;;;18.84;30.47
56992;BME280;42885;49.754;18.636;2023-03-01T12:31:07;99109.35;;;18.51;29.84
56992;BME280;42885;49.754;18.636;2023-03-01T12:47:16;99095.72;;;18.50;29.34
56992;BME280;42885;49.754;18.636;2023-03-01T12:52:41;99086.27;;;20.49;31.24
56992;BME280;42885;49.754;18.636;2023-03-01T12:55:33;99089.25;;;18.43;28.70
56992;BME280;42885;49.754;18.636;2023-03-01T12:58:31;99086.37;;;17.00;28.77
56992;BME280;42885;49.754;18.636;2023-03-01T13:01:22;99085.63;;;17.87;28.61
56992;BME280;42885;49.754;18.636;2023-03-01T13:10:49;99090.72;;;16.21;29.38
56992;BME280;42885;49.754;18.636;2023-03-01T13:13:39;99085.56;;;17.47;29.12
56992;BME280;42885;49.754;18.636;2023-03-01T13:19:25;99080.20;;;17.60;28.62
56992;BME280;42885;49.754;18.636;2023-03-01T13:22:31;99078.91;;;18.06;28.68
56992;BME280;42885;49.754;18.636;2023-03-01T13:25:21;99082.66;;;16.78;29.32
56992;BME280;42885;49.754;18.636;2023-03-01T13:34:42;99058.27;;;17.46;28.39
56992;BME280;42885;49.754;18.636;2023-03-01T13:37:39;99067.45;;;18.28;27.41
56992;BME280;42885;49.754;18.636;2023-03-01T13:43:32;99058.58;;;18.06;27.66
56992;BME280;42885;49.754;18.636;2023-03-01T13:46:23;99053.52;;;18.14;27.00
56992;BME280;42885;49.754;18.636;2023-03-01T13:49:14;99054.76;;;17.34;27.70
56992;BME280;42885;49.754;18.636;2023-03-01T13:52:05;99051.92;;;18.23;27.60
56992;BME280;42885;49.754;18.636;2023-03-01T13:54:57;99051.92;;;17.95;26.51
56992;BME280;42885;49.754;18.636;2023-03-01T13:57:49;99051.92;;;17.95;26.51
56992;BME280;42885;49.754;18.636;2023-03-01T14:00:41;99056.02;;;17.76;26.87
56992;BME280;42885;49.754;18.636;2023-03-01T14:03:31;99054.41;;;18.53;26.49
56992;BME280;42885;49.754;18.636;2023-03-01T14:06:33;99053.39;;;18.10;26.49
56992;BME280;42885;49.754;18.636;2023-03-01T14:09:26;99049.88;;;17.53;26.77
56992;BME280;42885;49.754;18.636;2023-03-01T14:15:43;99053.39;;;16.87;28.42
56992;BME280;42885;49.754;18.636;2023-03-01T14:21:30;99060.55;;;12.60;32.97
56992;BME280;42885;49.754;18.636;2023-03-01T14:24:21;99049.19;;;13.37;33.23
56992;BME280;42885;49.754;18.636;2023-03-01T14:27:12;99056.99;;;11.54;34.34
56992;BME280;42885;49.754;18.636;2023-03-01T14:30:10;99052.58;;;11.54;34.55
56992;BME280;42885;49.754;18.636;2023-03-01T14:33:02;99052.51;;;11.47;35.19
56992;BME280;42885;49.754;18.636;2023-03-01T14:35:54;99068.25;;;11.12;35.29
56992;BME280;42885;49.754;18.636;2023-03-01T14:38:46;99070.10;;;10.92;35.80
56992;BME280;42885;49.754;18.636;2023-03-01T14:41:36;99066.49;;;10.19;36.84
56992;BME280;42885;49.754;18.636;2023-03-01T14:44:25;99065.84;;;9.55;37.97
56992;BME280;42885;49.754;18.636;2023-03-01T14:47:25;99072.23;;;9.69;37.84
56992;BME280;42885;49.754;18.636;2023-03-01T14:50:32;99065.41;;;9.85;38.23
56992;BME280;42885;49.754;18.636;2023-03-01T14:53:29;99063.63;;;9.46;38.41
56992;BME280;42885;49.754;18.636;2023-03-01T14:56:19;99057.98;;;9.76;38.05
56992;BME280;42885;49.754;18.636;2023-03-01T14:59:09;99052.84;;;9.83;37.77
56992;BME280;42885;49.754;18.636;2023-03-01T15:01:59;99053.53;;;9.78;38.27
56992;BME280;42885;49.754;18.636;2023-03-01T15:04:57;99054.36;;;9.89;38.50
56992;BME280;42885;49.754;18.636;2023-03-01T15:07:48;99059.53;;;9.80;37.89
56992;BME280;42885;49.754;18.636;2023-03-01T15:10:38;99024.91;;;10.04;37.98
56992;BME280;42885;49.754;18.636;2023-03-01T15:13:35;99047.80;;;10.18;38.07
56992;BME280;42885;49.754;18.636;2023-03-01T15:16:32;99056.27;;;9.75;38.57
56992;BME280;42885;49.754;18.636;2023-03-01T15:19:23;99062.05;;;9.62;38.58
56992;BME280;42885;49.754;18.636;2023-03-01T15:22:15;99061.60;;;9.42;39.17
56992;BME280;42885;49.754;18.636;2023-03-01T15:25:13;99064.55;;;9.45;38.39
56992;BME280;42885;49.754;18.636;2023-03-01T15:27:57;99053.03;;;9.49;38.25
56992;BME280;42885;49.754;18.636;2023-03-01T15:30:58;99057.23;;;9.22;38.25
56992;BME280;42885;49.754;18.636;2023-03-01T15:33:42;99048.59;;;9.41;38.10
56992;BME280;42885;49.754;18.636;2023-03-01T15:36:41;99051.36;;;9.27;38.48
56992;BME280;42885;49.754;18.636;2023-03-01T15:39:53;99048.95;;;9.22;38.81
56992;BME280;42885;49.754;18.636;2023-03-01T15:42:37;99052.06;;;9.10;39.00
56992;BME280;42885;49.754;18.636;2023-03-01T15:45:28;99054.14;;;9.02;39.73
56992;BME280;42885;49.754;18.636;2023-03-01T15:48:19;99046.11;;;8.96;39.86
56992;BME280;42885;49.754;18.636;2023-03-01T15:51:12;99049.78;;;8.70;40.75
56992;BME280;42885;49.754;18.636;2023-03-01T15:54:13;99043.80;;;8.78;40.78
56992;BME280;42885;49.754;18.636;2023-03-01T15:57:01;99049.03;;;8.56;41.69
56992;BME280;42885;49.754;18.636;2023-03-01T15:59:50;99043.42;;;8.43;42.55
56992;BME280;42885;49.754;18.636;2023-03-01T16:02:41;99044.14;;;8.24;43.04
56992;BME280;42885;49.754;18.636;2023-03-01T16:05:32;99043.67;;;8.24;43.14
56992;BME280;42885;49.754;18.636;2023-03-01T16:08:22;99049.23;;;8.15;43.94
56992;BME280;42885;49.754;18.636;2023-03-01T16:11:16;99046.47;;;8.08;44.25
56992;BME280;42885;49.754;18.636;2023-03-01T16:14:08;99037.81;;;7.95;44.59
56992;BME280;42885;49.754;18.636;2023-03-01T16:16:59;99039.64;;;7.93;44.71
56992;BME280;42885;49.754;18.636;2023-03-01T16:19:48;99044.72;;;7.73;45.49
56992;BME280;42885;49.754;18.636;2023-03-01T16:22:37;99048.02;;;7.78;46.28